Airfield :
LOGIN :

Register | Disclaimer

   EN    FR    IT 

 










Legend :    VFR   Marginal VFR   IFR   Intensive IFR   Very Intensive IFR
Visi :
Ceiling :
>= 8 km
>= 3000ft
5 to 8 km
1000 to 3000 ft
1500m to 5 km
500 to 1000 ft
800 to 1500m
200 to 500 ft
< 800m
< 200 ft
Symbols :   Thunderstorms  Fog  Heavy snow  Heavy precipitations  Wind > 20 kt
SIGMETs :     Misc.  Thunderstorms  Icing  Turbulence  Mountain Waves  Volcanic Ashes






- Airport Elevation : 106 ft
- IATA code : NRN


EDLV - Weeze

CURRENT METAR :
  • 221250Z 13005KT 070V220 9999 SCT047 21/10 Q1014

EXPIRED METARs :
  • 221220Z VRB03KT 9999 SCT045 21/09 Q1015
  • 221150Z 11006KT 060V150 9999 FEW042 20/09 Q1015
  • 221120Z VRB05KT 9999 SCT041 19/10 Q1015
  • 221050Z VRB04KT 9999 SCT040 19/10 Q1016
  • 221020Z 02004KT 320V100 9999 SCT039 19/11 Q1016

TAF TAF EDLV
Valid from the 22 at 12:00 until the 23 at 12:00 UTC


221100Z 2212/2312 06004KT CAVOK
BECMG 2221/2224 12006KT



MET'MAP, your aeronautical weather chart ! - Copyright ORBIFLY December 2007 - Disclaimer

ORBIFLY MET'MAP TEAM :

Programming & Development : Alexandra Zaïnal
Original concept : Baudouin d'Aumeries
Technical & hardware support : Manuel Goepfert
Assistance : Marc-Olivier Méhu

Contact : metmap@orbifly.com




SOURCES & CREDITS :

   NOAA